Time;durP1;ratioP1;P1;durP2;ratioP2;P2;SDS_P1;SDS_P2;PMS_P1;PMS_P2;Temp;Humidity;BMP_temperature;BMP_pressure;BME280_temperature;BME280_humidity;BME280_pressure;Samples;Min_cycle;Max_cycle;Signal;HPM_P1;HPM_P2
2023/04/27 00:02:46;;;;;;;3.80;3.23;;;;;;;11.17;45.24;98082.84;8281224;28;20388;-69
2023/04/27 00:06:49;;;;;;;6.60;3.10;;;;;;;11.15;44.93;98073.34;8280916;28;20228;-69
2023/04/27 00:10:53;;;;;;;5.23;3.27;;;;;;;11.24;44.72;98063.50;8281330;28;20235;-69
2023/04/27 00:14:57;;;;;;;3.47;2.97;;;;;;;11.17;44.79;98064.69;8281739;28;20236;-69
2023/04/27 00:19:00;;;;;;;3.93;3.47;;;;;;;11.12;45.29;98078.69;8281628;28;20228;-69
2023/04/27 00:23:03;;;;;;;4.47;3.17;;;;;;;11.18;45.59;98071.56;8281414;28;20225;-69
2023/04/27 00:27:06;;;;;;;6.03;2.93;;;;;;;11.15;45.34;98065.59;8281097;28;20236;-69
2023/04/27 00:31:10;;;;;;;5.00;3.30;;;;;;;11.25;44.83;98063.44;8280622;28;20233;-69
2023/04/27 00:35:13;;;;;;;6.50;3.60;;;;;;;11.18;45.34;98062.03;8280772;28;20254;-70
2023/04/27 00:39:18;;;;;;;4.57;3.83;;;;;;;11.18;45.38;98056.00;8280614;28;20244;-68
2023/04/27 00:43:21;;;;;;;6.37;3.53;;;;;;;11.08;45.85;98053.84;8279441;28;20233;-68
2023/04/27 00:47:25;;;;;;;5.83;3.43;;;;;;;11.12;45.68;98052.78;8279608;28;20249;-68
2023/04/27 00:51:29;;;;;;;6.47;3.80;;;;;;;10.93;45.51;98038.97;8279601;28;20251;-68
2023/04/27 00:55:32;;;;;;;5.00;3.10;;;;;;;10.91;45.43;98043.38;8279178;28;20240;-68
2023/04/27 00:59:35;;;;;;;4.87;3.60;;;;;;;10.93;45.19;98047.56;8279656;28;20241;-68
2023/04/27 01:03:39;;;;;;;4.93;3.67;;;;;;;10.90;45.34;98045.13;8279081;28;20243;-68
2023/04/27 01:07:42;;;;;;;6.53;3.70;;;;;;;10.78;45.87;98042.25;8279019;28;20380;-68
2023/04/27 01:11:45;;;;;;;5.67;3.77;;;;;;;10.77;46.10;98049.16;8279094;28;20228;-68
2023/04/27 01:15:49;;;;;;;4.67;3.67;;;;;;;10.92;46.07;98045.88;8279303;28;20231;-68
2023/04/27 01:19:54;;;;;;;5.50;3.50;;;;;;;10.73;46.19;98037.25;8279324;28;20562;-68
2023/04/27 01:23:58;;;;;;;5.90;3.73;;;;;;;10.82;46.36;98051.56;8279113;28;20247;-68
2023/04/27 01:28:01;;;;;;;6.17;3.40;;;;;;;10.76;46.58;98044.91;8279293;28;20228;-68
2023/04/27 01:32:05;;;;;;;5.37;3.30;;;;;;;10.80;46.52;98054.22;8278693;28;20246;-68
2023/04/27 01:36:08;;;;;;;5.53;3.07;;;;;;;10.75;46.41;98050.97;8279042;28;20243;-68
2023/04/27 01:40:14;;;;;;;5.33;3.13;;;;;;;10.86;45.69;98055.69;8279387;28;20251;-68
2023/04/27 01:44:17;;;;;;;3.47;2.70;;;;;;;10.79;46.61;98052.50;8279656;28;20238;-68
2023/04/27 01:48:20;;;;;;;2.93;2.63;;;;;;;10.77;46.18;98054.34;8278802;28;20238;-68
2023/04/27 01:52:23;;;;;;;5.07;3.40;;;;;;;10.75;46.57;98050.97;8282913;28;20239;-69
2023/04/27 01:56:28;;;;;;;7.40;3.13;;;;;;;10.70;46.41;98047.72;8285627;28;20283;-68
2023/04/27 02:00:31;;;;;;;4.13;2.80;;;;;;;10.80;46.14;98055.97;8285275;28;20231;-68
2023/04/27 02:04:35;;;;;;;4.30;2.67;;;;;;;10.79;45.94;98054.28;8285410;28;20237;-68
2023/04/27 02:08:38;;;;;;;4.23;2.93;;;;;;;10.74;46.05;98044.97;8285671;28;20508;-70
2023/04/27 02:12:47;;;;;;;5.03;3.43;;;;;;;10.65;46.80;98050.53;8285254;28;20228;-68
2023/04/27 02:16:50;;;;;;;4.07;3.00;;;;;;;10.68;46.57;98057.31;8285209;28;20235;-68
2023/04/27 02:20:53;;;;;;;4.27;3.50;;;;;;;10.79;46.47;98055.09;8285382;28;20231;-69
2023/04/27 02:24:55;;;;;;;6.37;3.70;;;;;;;10.82;46.80;98046.38;8284783;28;20294;-68
2023/04/27 02:29:03;;;;;;;4.20;3.40;;;;;;;10.74;46.70;98059.66;8285072;28;20227;-68
2023/04/27 02:33:06;;;;;;;5.03;3.60;;;;;;;10.64;47.15;98067.00;8285526;28;20229;-68
2023/04/27 02:37:09;;;;;;;5.97;3.37;;;;;;;10.66;46.82;98061.72;8285068;28;20242;-68
2023/04/27 02:41:12;;;;;;;3.77;3.17;;;;;;;10.45;46.71;98060.91;8284569;28;20227;-68
2023/04/27 02:45:17;;;;;;;4.87;3.10;;;;;;;10.57;46.82;98055.22;8284386;28;20465;-68
2023/04/27 02:49:20;;;;;;;4.70;3.40;;;;;;;10.62;46.91;98068.78;8284152;28;20245;-68
2023/04/27 02:53:23;;;;;;;4.13;3.37;;;;;;;10.43;47.25;98047.19;8284290;28;20550;-68
2023/04/27 02:57:25;;;;;;;6.10;3.70;;;;;;;10.41;47.78;98067.13;8283869;28;20590;-69
2023/04/27 03:01:30;;;;;;;5.43;3.20;;;;;;;10.56;47.59;98084.59;8283367;28;20546;-68
2023/04/27 03:05:33;;;;;;;3.90;2.97;;;;;;;10.47;47.96;98072.03;8283642;28;20236;-68
2023/04/27 03:09:36;;;;;;;5.47;3.43;;;;;;;10.45;48.00;98068.66;8283797;28;20227;-68
2023/04/27 03:13:41;;;;;;;6.10;3.23;;;;;;;10.35;47.47;98050.94;8283675;28;20235;-68
2023/04/27 03:17:45;;;;;;;4.30;2.97;;;;;;;10.38;47.55;98065.50;8283461;28;20234;-68
2023/04/27 03:21:48;;;;;;;5.43;3.00;;;;;;;10.46;47.73;98078.13;8282735;28;20233;-68
2023/04/27 03:25:52;;;;;;;3.90;3.50;;;;;;;10.36;47.91;98075.91;8283083;28;20235;-68
2023/04/27 03:29:55;;;;;;;4.83;3.03;;;;;;;10.33;48.10;98077.78;8283439;28;20231;-68
2023/04/27 03:34:04;;;;;;;4.83;3.07;;;;;;;10.40;47.97;98081.81;8282965;28;20578;-68
2023/04/27 03:38:09;;;;;;;5.60;3.50;;;;;;;10.32;48.26;98089.91;8282582;28;20231;-68
2023/04/27 03:42:12;;;;;;;4.77;3.37;;;;;;;10.28;48.35;98083.13;8282493;28;20235;-68
2023/04/27 03:46:15;;;;;;;6.43;3.60;;;;;;;10.32;48.38;98089.91;8282393;28;20238;-69
2023/04/27 03:50:19;;;;;;;5.67;4.00;;;;;;;10.35;48.30;98097.53;8281743;28;20294;-69
2023/04/27 03:54:22;;;;;;;5.37;3.87;;;;;;;10.21;48.17;98084.28;8282086;28;20227;-69
2023/04/27 03:58:25;;;;;;;4.43;3.57;;;;;;;10.39;48.07;98107.75;8282115;28;20224;-68
2023/04/27 04:02:28;;;;;;;4.67;3.53;;;;;;;10.43;48.19;98106.72;8282093;28;20642;-68
2023/04/27 04:06:33;;;;;;;6.93;3.57;;;;;;;10.31;48.37;98105.50;8281111;28;20234;-68
2023/04/27 04:10:35;;;;;;;5.67;3.73;;;;;;;10.35;48.50;98089.75;8280933;28;20258;-68
2023/04/27 04:14:38;;;;;;;5.37;3.37;;;;;;;10.48;48.50;98099.63;8280529;28;20227;-68
2023/04/27 04:18:41;;;;;;;7.27;3.70;;;;;;;10.34;48.83;98085.50;8281358;28;20239;-68
2023/04/27 04:22:45;;;;;;;4.70;3.90;;;;;;;10.34;48.81;98082.06;8281353;28;20227;-68
2023/04/27 04:26:48;;;;;;;5.80;3.93;;;;;;;10.48;48.13;98094.44;8280584;28;20235;-68
2023/04/27 04:30:51;;;;;;;5.20;3.60;;;;;;;10.40;47.93;98088.75;8280867;28;20230;-69
2023/04/27 04:34:54;;;;;;;5.80;3.40;;;;;;;10.34;47.99;98075.16;8280774;28;20231;-69
2023/04/27 04:38:58;;;;;;;5.13;3.70;;;;;;;10.54;48.18;98097.59;8280422;28;20547;-69
2023/04/27 04:43:01;;;;;;;4.70;3.60;;;;;;;10.49;48.99;98096.09;8280364;28;20234;-69
2023/04/27 04:47:03;;;;;;;5.10;3.87;;;;;;;10.57;48.85;98107.84;8280546;28;20236;-69
2023/04/27 04:51:06;;;;;;;4.53;3.97;;;;;;;10.67;48.13;98100.53;8280501;28;20232;-69
2023/04/27 04:55:11;;;;;;;5.13;4.20;;;;;;;10.71;47.62;98091.72;8280114;28;20228;-69
2023/04/27 04:59:15;;;;;;;6.33;4.20;;;;;;;10.60;47.25;98093.91;8280034;28;20531;-69
2023/04/27 05:03:17;;;;;;;5.50;4.50;;;;;;;10.70;47.01;98103.00;8279099;28;20228;-69
2023/04/27 05:07:20;;;;;;;6.13;4.10;;;;;;;10.84;46.12;98102.38;8279708;28;20397;-69
2023/04/27 05:11:28;;;;;;;4.80;4.30;;;;;;;10.66;45.97;98098.00;8279436;28;20455;-69
2023/04/27 05:15:30;;;;;;;7.07;4.00;;;;;;;10.25;46.74;98109.13;8278751;28;20234;-69
2023/04/27 05:19:33;;;;;;;6.37;3.80;;;;;;;10.50;47.21;98114.16;8278168;28;20444;-69
2023/04/27 05:23:36;;;;;;;6.90;3.80;;;;;;;10.74;46.13;98127.84;8279297;28;20244;-69
2023/04/27 05:27:40;;;;;;;5.23;3.67;;;;;;;10.64;46.08;98130.88;8278967;28;20234;-71
2023/04/27 05:31:43;;;;;;;7.17;4.40;;;;;;;10.41;46.59;98126.66;8279304;28;20250;-70
2023/04/27 05:35:46;;;;;;;5.90;3.67;;;;;;;10.86;45.55;98136.00;8278905;28;20232;-70
2023/04/27 05:39:49;;;;;;;5.93;3.47;;;;;;;10.84;45.72;98138.66;8278884;28;20522;-70
2023/04/27 05:43:53;;;;;;;5.57;3.43;;;;;;;10.76;45.13;98126.03;8278635;28;20397;-69
2023/04/27 05:47:56;;;;;;;5.83;3.60;;;;;;;10.78;43.63;98146.69;8278674;28;20237;-69
2023/04/27 05:51:59;;;;;;;7.70;3.50;;;;;;;10.80;44.83;98146.63;8278350;28;20227;-69
2023/04/27 05:56:05;;;;;;;4.80;3.50;;;;;;;10.67;44.43;98141.97;8278443;28;20493;-69
2023/04/27 06:00:11;;;;;;;7.50;3.47;;;;;;;10.48;45.57;98136.69;8278272;28;20227;-70
2023/04/27 06:04:14;;;;;;;6.70;3.23;;;;;;;10.54;45.01;98143.38;8278503;28;20231;-70
2023/04/27 06:08:17;;;;;;;4.43;2.90;;;;;;;10.41;45.16;98142.19;8278204;28;20246;-70
2023/04/27 06:12:20;;;;;;;4.40;3.00;;;;;;;11.04;43.56;98153.38;8277777;28;20243;-70
2023/04/27 06:16:24;;;;;;;3.87;3.23;;;;;;;10.80;44.65;98154.41;8278353;28;20234;-70
2023/04/27 06:20:27;;;;;;;5.57;3.20;;;;;;;11.08;43.23;98136.78;8277956;28;20237;-70
2023/04/27 06:24:30;;;;;;;4.70;3.10;;;;;;;11.40;43.32;98147.44;8278073;28;20242;-70
2023/04/27 06:28:33;;;;;;;6.67;3.27;;;;;;;10.70;43.99;98152.19;8278492;28;20536;-69
2023/04/27 06:32:37;;;;;;;6.73;3.27;;;;;;;10.52;44.72;98121.88;8278724;28;20541;-70
2023/04/27 06:36:40;;;;;;;4.97;2.43;;;;;;;11.31;42.40;98159.09;8279297;28;20235;-70
2023/04/27 06:40:43;;;;;;;6.60;2.80;;;;;;;10.63;43.59;98155.13;8283924;28;20234;-70
2023/04/27 06:44:46;;;;;;;3.90;2.50;;;;;;;10.98;42.68;98163.13;8284171;28;20228;-70
2023/04/27 06:48:51;;;;;;;3.97;2.87;;;;;;;11.19;42.43;98159.59;8283793;28;20242;-69
2023/04/27 06:52:54;;;;;;;7.10;3.10;;;;;;;11.47;42.26;98158.41;8283714;28;20227;-70
2023/04/27 06:56:57;;;;;;;4.73;3.00;;;;;;;11.68;42.08;98167.78;8283609;28;20236;-70
2023/04/27 07:01:00;;;;;;;3.87;2.70;;;;;;;11.66;42.41;98156.66;8283973;28;20245;-70
2023/04/27 07:05:06;;;;;;;6.27;2.83;;;;;;;11.83;42.23;98168.00;8283305;28;20234;-69
2023/04/27 07:09:11;;;;;;;4.47;3.00;;;;;;;12.05;41.54;98149.69;8283542;28;20295;-70
2023/04/27 07:13:28;;;;;;;3.53;2.63;;;;;;;12.24;41.28;98128.91;8281428;28;20234;-70
2023/04/27 07:17:31;;;;;;;4.70;2.60;;;;;;;12.74;40.59;98167.13;8283428;28;20241;-70
2023/04/27 07:21:35;;;;;;;5.43;2.53;;;;;;;12.74;39.79;98172.34;8283126;28;20242;-70
2023/04/27 07:25:39;;;;;;;8.17;2.87;;;;;;;12.05;40.54;98178.25;8283161;28;20222;-69
2023/04/27 07:29:42;;;;;;;5.77;2.80;;;;;;;12.56;38.93;98178.44;8282740;28;20227;-68
2023/04/27 07:33:45;;;;;;;3.27;2.30;;;;;;;13.33;38.26;98178.03;8282918;28;20241;-69
2023/04/27 07:37:50;;;;;;;5.40;2.33;;;;;;;13.70;37.50;98181.28;8283056;28;20300;-69
2023/04/27 07:41:53;;;;;;;5.60;2.60;;;;;;;13.79;37.42;98179.97;8282644;28;20227;-68
2023/04/27 07:45:57;;;;;;;6.53;2.90;;;;;;;12.61;37.46;98164.31;8282658;28;20227;-69
2023/04/27 07:50:00;;;;;;;4.97;2.37;;;;;;;13.86;35.70;98160.50;8281539;28;20526;-69
2023/04/27 07:54:05;;;;;;;3.00;2.10;;;;;;;13.55;36.15;98179.50;8282527;28;20290;-69
2023/04/27 07:58:08;;;;;;;6.27;2.70;;;;;;;14.22;35.73;98181.06;8282705;28;20530;-69
2023/04/27 08:02:11;;;;;;;5.97;2.47;;;;;;;14.79;34.18;98169.19;8264913;28;20242;-70
2023/04/27 08:06:22;;;;;;;3.40;2.27;;;;;;;14.96;33.94;98166.41;8281440;28;20392;-70
2023/04/27 08:10:27;;;;;;;4.57;2.47;;;;;;;14.99;33.12;98188.88;8281989;28;20236;-70
2023/04/27 08:14:30;;;;;;;4.33;2.47;;;;;;;15.57;33.32;98188.00;8281318;28;20240;-70
2023/04/27 08:18:33;;;;;;;5.40;2.70;;;;;;;15.80;31.87;98185.75;8281827;28;20425;-70
2023/04/27 08:22:36;;;;;;;4.17;2.17;;;;;;;16.37;31.51;98190.00;8281849;28;20244;-70
2023/04/27 08:26:40;;;;;;;6.33;2.60;;;;;;;15.67;30.28;98175.22;8281053;28;20232;-69
2023/04/27 08:30:43;;;;;;;5.17;2.60;;;;;;;16.85;30.18;98200.88;8281009;28;20237;-70
2023/04/27 08:34:46;;;;;;;3.10;2.53;;;;;;;16.95;29.83;98106.91;8281175;28;20237;-70
2023/04/27 08:38:49;;;;;;;4.07;2.30;;;;;;;17.68;28.42;98182.13;8281158;28;20226;-70
2023/04/27 08:42:58;;;;;;;5.37;3.90;;;;;;;17.31;29.53;98187.31;8281310;28;20223;-70
2023/04/27 08:47:04;;;;;;;1.53;1.37;;;;;;;19.37;48.33;98171.56;8280662;28;20546;-70
2023/04/27 08:51:09;;;;;;;3.90;2.53;;;;;;;19.38;35.73;98172.41;8281023;28;20405;-70
2023/04/27 08:55:12;;;;;;;5.90;3.03;;;;;;;19.34;27.78;98175.28;8280578;28;20254;-70
2023/04/27 08:59:19;;;;;;;3.10;2.20;;;;;;;20.57;30.19;98175.22;8279095;28;20292;-71
2023/04/27 09:03:23;;;;;;;5.47;2.57;;;;;;;20.18;29.88;98176.66;8280401;28;20254;-70
2023/04/27 09:07:28;;;;;;;6.67;2.80;;;;;;;19.61;27.01;98165.34;8280275;28;20235;-70
2023/04/27 09:11:33;;;;;;;4.40;2.93;;;;;;;19.48;26.61;98174.22;8280401;28;20373;-69
2023/04/27 09:15:43;;;;;;;5.43;3.17;;;;;;;19.89;27.12;98166.69;8279768;28;20467;-69
2023/04/27 09:19:50;;;;;;;5.43;3.53;;;;;;;19.81;25.33;98163.84;8280102;28;20344;-69
2023/04/27 09:23:52;;;;;;;7.68;3.60;;;;;;;21.10;25.26;98161.22;8278920;28;20424;-71
2023/04/27 09:27:56;;;;;;;5.33;3.30;;;;;;;21.37;23.89;98139.59;8277836;28;20510;-71
2023/04/27 09:32:01;;;;;;;4.70;3.27;;;;;;;20.94;23.83;98140.59;8279662;28;20469;-72
2023/04/27 09:36:05;;;;;;;5.80;3.60;;;;;;;21.08;24.66;98113.97;8279575;28;20242;-71
2023/04/27 09:40:09;;;;;;;6.07;3.93;;;;;;;19.53;24.02;97985.59;8279507;28;20301;-72
2023/04/27 09:44:14;;;;;;;4.07;3.27;;;;;;;21.27;23.21;98134.28;8278611;28;20501;-72
2023/04/27 09:48:19;;;;;;;6.63;4.00;;;;;;;18.76;25.15;98132.44;8278649;28;20254;-72
2023/04/27 09:52:25;;;;;;;7.27;4.20;;;;;;;19.40;24.92;98138.97;8278898;28;20237;-72
2023/04/27 09:56:40;;;;;;;4.03;3.63;;;;;;;20.58;23.86;98136.59;8278676;28;20344;-72
2023/04/27 10:00:52;;;;;;;4.83;3.67;;;;;;;20.97;23.12;98131.63;8278623;28;20237;-72
2023/04/27 10:05:27;;;;;;;6.03;3.73;;;;;;;20.88;23.75;98118.25;8279209;28;20831;-72
2023/04/27 10:09:36;;;;;;;7.90;4.27;;;;;;;20.84;23.33;98122.13;8279035;28;20238;-71
2023/04/27 10:13:39;;;;;;;6.03;3.90;;;;;;;21.24;23.48;98126.63;8283851;28;20503;-72
2023/04/27 10:17:48;;;;;;;3.67;3.30;;;;;;;21.09;24.77;98125.31;8285777;28;20242;-72
2023/04/27 10:21:55;;;;;;;4.87;3.63;;;;;;;20.67;24.38;98117.44;8284852;28;20226;-72
2023/04/27 10:26:07;;;;;;;6.27;4.10;;;;;;;20.65;24.26;98119.38;8284845;28;20227;-72
2023/04/27 10:30:12;;;;;;;5.87;4.10;;;;;;;19.83;25.11;98136.47;8284367;28;20235;-72
2023/04/27 10:34:17;;;;;;;4.10;3.70;;;;;;;21.48;23.47;98115.00;8284326;28;20243;-71
2023/04/27 10:38:31;;;;;;;6.63;3.83;;;;;;;22.10;24.14;98120.13;8284426;28;20233;-71
2023/04/27 10:42:34;;;;;;;4.90;3.63;;;;;;;21.26;24.37;98113.34;8284892;28;20233;-71
2023/04/27 10:46:37;;;;;;;6.63;3.70;;;;;;;21.72;24.64;98113.81;8285382;28;20238;-71
2023/04/27 10:50:40;;;;;;;4.97;3.67;;;;;;;22.68;23.64;98114.88;8284640;28;20296;-71
2023/04/27 10:54:47;;;;;;;4.50;3.40;;;;;;;22.74;24.10;98105.56;8284575;28;20534;-71
2023/04/27 10:58:50;;;;;;;6.30;4.20;;;;;;;22.12;23.70;98099.72;8284055;28;20384;-72
2023/04/27 11:02:54;;;;;;;4.57;3.37;;;;;;;23.14;23.25;98072.84;8284343;28;20234;-72
2023/04/27 11:06:57;;;;;;;6.67;3.50;;;;;;;23.23;24.02;98098.38;8284335;28;20672;-69
2023/04/27 11:11:01;;;;;;;4.80;3.63;;;;;;;23.63;22.24;98094.59;8284070;28;20541;-71
2023/04/27 11:15:06;;;;;;;4.20;3.33;;;;;;;23.84;23.08;98080.28;8283382;28;20569;-71
2023/04/27 11:19:08;;;;;;;5.40;3.70;;;;;;;23.88;22.93;98100.19;8282828;28;20514;-71
2023/04/27 11:23:12;;;;;;;4.70;3.80;;;;;;;24.05;21.97;98104.66;8282834;28;20403;-71
2023/04/27 11:27:21;;;;;;;4.63;3.90;;;;;;;24.12;21.73;98099.56;8282621;28;20227;-71
2023/04/27 11:31:23;;;;;;;7.60;3.90;;;;;;;24.51;21.36;98105.41;8282371;28;20278;-71
2023/04/27 11:35:33;;;;;;;8.30;3.80;;;;;;;24.32;22.29;98108.22;8283011;28;20544;-71
2023/04/27 11:39:38;;;;;;;4.97;4.07;;;;;;;23.22;22.82;98091.44;8282458;28;20235;-71
2023/04/27 11:43:45;;;;;;;4.13;3.73;;;;;;;22.81;22.17;98115.44;8282600;28;20250;-71
2023/04/27 11:47:47;;;;;;;4.50;3.80;;;;;;;23.43;22.12;98101.75;8282611;28;20290;-71
2023/04/27 11:51:56;;;;;;;5.57;4.30;;;;;;;22.21;22.76;98091.00;8272428;28;20234;-71
2023/04/27 11:56:01;;;;;;;6.80;4.00;;;;;;;22.39;23.05;98092.00;8281877;28;20223;-71
2023/04/27 12:00:13;;;;;;;4.40;3.80;;;;;;;22.06;22.73;98091.38;8282472;28;20253;-71
2023/04/27 12:04:16;;;;;;;6.88;3.70;;;;;;;22.33;22.84;98095.22;8280600;28;20426;-72
2023/04/27 12:08:28;;;;;;;4.87;3.97;;;;;;;21.75;22.88;98097.75;8281343;28;20227;-72
2023/04/27 12:12:32;;;;;;;5.60;3.50;;;;;;;20.92;23.76;98089.06;8281698;28;20238;-72
2023/04/27 12:16:36;;;;;;;5.07;4.10;;;;;;;21.88;22.87;98087.78;8281523;28;20304;-71
2023/04/27 12:20:40;;;;;;;6.97;4.07;;;;;;;20.99;23.68;98074.41;8281665;28;20306;-71
2023/04/27 12:24:43;;;;;;;6.10;4.30;;;;;;;21.55;23.51;98081.88;8280969;28;20235;-71
2023/04/27 12:28:45;;;;;;;5.00;4.50;;;;;;;21.35;23.33;98082.75;8280834;28;20231;-71
2023/04/27 12:32:50;;;;;;;6.93;4.23;;;;;;;21.51;22.76;98083.09;8280583;28;20227;-71
2023/04/27 12:36:53;;;;;;;4.57;3.57;;;;;;;21.95;23.32;98075.72;8279767;28;20237;-71
2023/04/27 12:40:57;;;;;;;6.67;4.00;;;;;;;21.51;22.94;98072.56;8278541;28;20527;-71
2023/04/27 12:45:00;;;;;;;5.50;4.40;;;;;;;22.53;22.43;98079.34;8280642;28;20231;-71
2023/04/27 12:49:05;;;;;;;5.60;4.03;;;;;;;22.77;23.14;98076.22;8280748;28;20237;-71
2023/04/27 12:53:10;;;;;;;5.17;4.03;;;;;;;22.45;23.52;98067.69;8280362;28;20227;-71
2023/04/27 12:57:15;;;;;;;5.47;3.80;;;;;;;21.67;24.45;98077.34;8280041;28;20460;-71
2023/04/27 13:01:19;;;;;;;6.20;4.57;;;;;;;21.31;23.48;98073.47;8279938;28;20227;-71
2023/04/27 13:05:23;;;;;;;5.13;4.00;;;;;;;20.98;24.44;98065.69;8280155;28;20330;-71
2023/04/27 13:09:26;;;;;;;4.47;3.97;;;;;;;20.80;24.59;98069.88;8280286;28;20245;-71
2023/04/27 13:13:29;;;;;;;7.00;4.23;;;;;;;21.52;25.95;98062.88;8280437;28;20510;-71
2023/04/27 13:17:32;;;;;;;6.00;4.37;;;;;;;21.62;24.57;98063.72;8280284;28;20235;-71
2023/04/27 13:21:38;;;;;;;6.40;3.70;;;;;;;22.11;25.90;98059.34;8280252;28;20438;-70
2023/04/27 13:25:41;;;;;;;5.03;3.57;;;;;;;21.37;25.11;98059.75;8269988;28;20227;-71
2023/04/27 13:29:44;;;;;;;5.57;3.60;;;;;;;21.33;25.50;98058.34;8263063;28;20223;-71
2023/04/27 13:33:47;;;;;;;5.30;4.13;;;;;;;21.69;25.30;98042.94;8280167;28;20385;-71
2023/04/27 13:37:54;;;;;;;6.03;4.00;;;;;;;22.48;24.80;98039.34;8279850;28;20258;-71
2023/04/27 13:41:58;;;;;;;4.43;3.60;;;;;;;21.54;25.35;98040.69;8279651;28;20530;-71
2023/04/27 13:46:01;;;;;;;4.73;4.17;;;;;;;21.81;23.30;98042.66;8282112;28;20242;-71
2023/04/27 13:50:06;;;;;;;6.03;4.00;;;;;;;22.24;22.73;98025.59;8286452;28;20233;-70
2023/04/27 13:54:10;;;;;;;5.40;4.23;;;;;;;22.20;24.14;98031.28;8286178;28;20245;-70
2023/04/27 13:58:14;;;;;;;5.63;4.30;;;;;;;22.01;22.57;98009.25;8286335;28;20237;-70
2023/04/27 14:02:17;;;;;;;7.70;4.83;;;;;;;21.67;23.92;98016.72;8286170;28;20383;-70
2023/04/27 14:06:20;;;;;;;5.83;4.30;;;;;;;21.20;24.28;98025.16;8285210;28;20227;-70
2023/04/27 14:10:27;;;;;;;5.57;4.10;;;;;;;21.03;24.07;98018.72;8285718;28;20231;-71
2023/04/27 14:14:34;;;;;;;6.67;4.07;;;;;;;21.29;24.33;98015.63;8286038;28;20231;-70
2023/04/27 14:18:37;;;;;;;7.80;4.47;;;;;;;20.68;24.38;98012.06;8285368;28;20234;-70
2023/04/27 14:22:40;;;;;;;5.23;4.00;;;;;;;20.67;24.56;98017.47;8285170;28;20230;-70
2023/04/27 14:26:46;;;;;;;5.10;3.73;;;;;;;20.49;25.12;98017.19;8285342;28;20233;-70
2023/04/27 14:30:49;;;;;;;4.20;3.80;;;;;;;20.49;25.50;98007.50;8285419;28;20342;-70
2023/04/27 14:34:52;;;;;;;5.93;3.30;;;;;;;20.96;26.06;98014.13;8285026;28;20227;-70
2023/04/27 14:38:55;;;;;;;4.73;3.20;;;;;;;20.55;26.19;98015.84;8285022;28;20231;-70
2023/04/27 14:43:02;;;;;;;4.40;3.77;;;;;;;20.20;26.16;98002.06;8284585;28;20224;-70
2023/04/27 14:47:08;;;;;;;4.57;4.07;;;;;;;20.28;27.22;98012.78;8284482;28;20235;-70
2023/04/27 14:51:11;;;;;;;6.47;3.83;;;;;;;20.55;26.15;98014.03;8284279;28;20237;-70
2023/04/27 14:55:15;;;;;;;7.03;3.90;;;;;;;20.97;25.29;98023.69;8284591;28;20228;-70
2023/04/27 14:59:20;;;;;;;5.40;4.30;;;;;;;20.49;25.56;98022.47;8282042;28;20230;-71
2023/04/27 15:03:23;;;;;;;7.50;4.10;;;;;;;20.07;26.62;98019.81;8284154;28;20453;-70
2023/04/27 15:07:26;;;;;;;5.47;3.93;;;;;;;20.17;25.85;98009.38;8284269;28;20249;-70
2023/04/27 15:11:29;;;;;;;5.83;3.73;;;;;;;20.23;26.07;98014.13;8284051;28;20232;-70
2023/04/27 15:15:33;;;;;;;6.73;4.00;;;;;;;19.73;25.94;98009.44;8283769;28;20240;-70
2023/04/27 15:19:36;;;;;;;4.70;3.83;;;;;;;19.99;25.98;98002.06;8283470;28;20235;-70
2023/04/27 15:23:41;;;;;;;5.03;3.30;;;;;;;20.24;25.70;98003.47;8283626;28;20455;-70
2023/04/27 15:27:44;;;;;;;5.40;3.80;;;;;;;20.41;26.11;98002.06;8283445;28;20661;-70
2023/04/27 15:31:48;;;;;;;4.50;3.30;;;;;;;20.63;26.20;98002.91;8283242;28;20550;-70
2023/04/27 15:35:52;;;;;;;6.40;3.77;;;;;;;20.18;27.85;97995.25;8283150;28;20242;-71
2023/04/27 15:40:00;;;;;;;4.97;3.70;;;;;;;20.08;26.78;97996.00;8283045;28;20242;-70
2023/04/27 15:44:08;;;;;;;7.73;4.40;;;;;;;19.98;28.07;97995.13;8282777;28;20250;-70
2023/04/27 15:48:12;;;;;;;6.13;3.87;;;;;;;19.69;28.21;98000.94;8283100;28;20222;-70
2023/04/27 15:52:17;;;;;;;6.73;3.90;;;;;;;19.65;27.53;97996.06;8282837;28;20578;-70
2023/04/27 15:56:20;;;;;;;6.43;3.50;;;;;;;19.73;26.99;97997.13;8282356;28;20416;-71
2023/04/27 16:00:23;;;;;;;4.77;3.47;;;;;;;19.97;27.99;97996.09;8281874;28;20219;-71
2023/04/27 16:04:27;;;;;;;6.63;4.50;;;;;;;19.31;27.88;97994.34;8282438;28;20557;-70
2023/04/27 16:08:31;;;;;;;5.67;4.13;;;;;;;19.51;28.64;97994.53;8281438;28;20258;-70
2023/04/27 16:12:34;;;;;;;4.13;3.53;;;;;;;19.18;28.17;97963.94;8281039;28;20414;-70
2023/04/27 16:16:38;;;;;;;5.00;3.53;;;;;;;19.39;28.24;97979.78;8281819;28;20246;-69
2023/04/27 16:20:43;;;;;;;4.47;3.50;;;;;;;19.35;29.12;97979.19;8281622;28;20558;-69
2023/04/27 16:24:46;;;;;;;5.53;4.70;;;;;;;18.87;28.88;97969.81;8281616;28;20223;-69
2023/04/27 16:28:48;;;;;;;7.23;4.93;;;;;;;18.64;28.36;97963.72;8280971;28;20223;-69
2023/04/27 16:32:52;;;;;;;4.20;3.70;;;;;;;18.21;29.09;97964.38;8281099;28;20404;-69
2023/04/27 16:36:56;;;;;;;8.00;4.63;;;;;;;18.13;29.13;97972.81;8280744;28;20240;-70
2023/04/27 16:40:59;;;;;;;6.33;4.00;;;;;;;18.04;29.34;97964.81;8281136;28;20248;-69
2023/04/27 16:45:02;;;;;;;5.83;3.73;;;;;;;18.30;29.28;97954.97;8280758;28;20269;-69
2023/04/27 16:49:04;;;;;;;5.37;4.30;;;;;;;18.36;29.10;97968.44;8281014;28;20237;-69
2023/04/27 16:53:12;;;;;;;6.43;4.40;;;;;;;18.13;29.15;97959.72;8280333;28;20490;-69
2023/04/27 16:57:15;;;;;;;6.20;4.00;;;;;;;18.17;29.06;97960.31;8280169;28;20238;-69
2023/04/27 17:01:19;;;;;;;5.17;3.70;;;;;;;18.21;29.15;97966.16;8279701;28;20236;-72
2023/04/27 17:05:22;;;;;;;8.00;4.10;;;;;;;18.27;28.84;97931.63;8280172;28;20530;-71
2023/04/27 17:09:27;;;;;;;6.10;3.73;;;;;;;18.39;28.86;97962.16;8280085;28;20266;-71
2023/04/27 17:13:31;;;;;;;4.83;3.70;;;;;;;18.11;29.47;97959.00;8279744;28;20428;-71
2023/04/27 17:17:36;;;;;;;4.87;3.60;;;;;;;18.12;29.39;97967.69;8280637;28;20231;-71
2023/04/27 17:21:40;;;;;;;4.60;3.50;;;;;;;18.25;29.40;97957.09;8278660;28;20314;-71
2023/04/27 17:25:45;;;;;;;4.47;3.63;;;;;;;18.07;29.81;97954.94;8280930;28;20289;-70
2023/04/27 17:29:48;;;;;;;4.87;3.43;;;;;;;18.26;29.27;97959.63;8280219;28;20297;-70
2023/04/27 17:33:54;;;;;;;8.57;3.73;;;;;;;18.06;29.28;97949.81;8279745;28;20233;-70
2023/04/27 17:37:57;;;;;;;5.00;4.17;;;;;;;17.65;29.83;97930.97;8279559;28;20223;-70
2023/04/27 17:42:01;;;;;;;7.27;3.87;;;;;;;18.00;29.76;97956.34;8279672;28;20287;-69
2023/04/27 17:46:08;;;;;;;5.87;3.90;;;;;;;17.79;30.08;97956.13;8279353;28;20343;-70
2023/04/27 17:50:13;;;;;;;4.30;3.90;;;;;;;17.84;30.36;97946.19;8279639;28;20447;-70
2023/04/27 17:54:16;;;;;;;5.80;3.53;;;;;;;18.00;30.17;97947.66;8279396;28;20223;-70
2023/04/27 17:58:20;;;;;;;6.37;4.07;;;;;;;17.88;30.27;97942.38;8279237;28;20528;-71
2023/04/27 18:02:23;;;;;;;7.73;4.20;;;;;;;17.84;31.61;97946.19;8279314;28;20226;-72
2023/04/27 18:06:26;;;;;;;9.70;5.20;;;;;;;17.82;33.65;97949.81;8278913;28;20300;-71
2023/04/27 18:10:30;;;;;;;8.87;5.77;;;;;;;17.68;33.09;97946.44;8279219;28;20238;-71
2023/04/27 18:14:34;;;;;;;7.00;5.97;;;;;;;17.64;33.30;97939.75;8278505;28;20232;-70
2023/04/27 18:18:37;;;;;;;8.77;6.33;;;;;;;17.56;33.23;97947.34;8278904;28;20228;-72
2023/04/27 18:22:39;;;;;;;10.50;7.13;;;;;;;17.56;33.02;97958.63;8278639;28;20223;-72
2023/04/27 18:26:42;;;;;;;9.50;6.37;;;;;;;16.96;33.18;97868.78;8278620;28;20233;-72
2023/04/27 18:30:47;;;;;;;11.00;8.93;;;;;;;17.41;34.79;97958.94;8278137;28;20421;-72
2023/04/27 18:34:52;;;;;;;9.13;8.13;;;;;;;17.38;33.47;97966.06;8282936;28;20233;-71
2023/04/27 18:38:56;;;;;;;9.77;7.00;;;;;;;17.28;34.27;97969.44;8284653;28;20236;-71
2023/04/27 18:43:00;;;;;;;8.97;6.67;;;;;;;17.19;34.62;97977.00;8284295;28;20226;-70
2023/04/27 18:47:06;;;;;;;9.53;7.07;;;;;;;17.11;34.35;97974.09;8284165;28;20421;-71
2023/04/27 18:51:09;;;;;;;14.67;6.70;;;;;;;17.10;35.44;97974.22;8284588;28;20245;-70
2023/04/27 18:55:13;;;;;;;13.13;8.97;;;;;;;17.03;35.20;97970.34;8284426;28;20263;-71
2023/04/27 18:59:15;;;;;;;8.20;5.60;;;;;;;17.00;35.70;97974.00;8284271;28;20573;-71
2023/04/27 19:03:20;;;;;;;3.47;1.70;;;;;;;17.51;51.47;97973.84;8272119;28;20309;-71
2023/04/27 19:07:23;;;;;;;6.10;3.50;;;;;;;17.85;48.78;97981.88;8283880;28;20236;-70
2023/04/27 19:11:27;;;;;;;9.27;4.23;;;;;;;17.85;44.77;97978.44;8284235;28;20242;-70